createdAt,value
2023-03-20T00:00:34.262Z,44.45
2023-03-20T00:03:02.532Z,44.86
2023-03-20T00:05:31.996Z,44.38
2023-03-20T00:08:00.136Z,44.60
2023-03-20T00:10:36.937Z,44.38
2023-03-20T00:13:06.618Z,44.56
2023-03-20T00:15:38.551Z,44.26
2023-03-20T00:18:16.556Z,43.70
2023-03-20T00:20:44.506Z,44.06
2023-03-20T00:23:12.390Z,44.40
2023-03-20T00:25:43.237Z,44.30
2023-03-20T00:28:38.998Z,43.97
2023-03-20T00:31:15.260Z,44.27
2023-03-20T00:33:43.173Z,44.15
2023-03-20T00:36:11.233Z,44.06
2023-03-20T00:38:41.416Z,44.49
2023-03-20T00:41:23.189Z,44.39
2023-03-20T00:43:53.351Z,44.13
2023-03-20T00:46:21.295Z,44.63
2023-03-20T00:48:49.881Z,44.01
2023-03-20T00:51:18.304Z,44.64
2023-03-20T00:53:46.141Z,43.81
2023-03-20T00:56:31.959Z,43.59
2023-03-20T00:59:01.470Z,43.84
2023-03-20T01:01:30.286Z,44.36
2023-03-20T01:03:58.154Z,44.22
2023-03-20T01:06:25.975Z,44.12
2023-03-20T01:08:53.854Z,44.36
2023-03-20T01:11:24.876Z,44.42
2023-03-20T01:13:54.194Z,44.40
2023-03-20T01:16:24.487Z,44.06
2023-03-20T01:18:52.856Z,44.18
2023-03-20T01:21:21.852Z,44.26
2023-03-20T01:23:51.267Z,44.59
2023-03-20T01:26:25.154Z,44.09
2023-03-20T01:28:54.404Z,43.92
2023-03-20T01:31:22.324Z,44.23
2023-03-20T01:33:50.440Z,43.96
2023-03-20T01:36:22.559Z,43.88
2023-03-20T01:38:56.818Z,43.92
2023-03-20T01:41:27.566Z,43.97
2023-03-20T01:43:56.790Z,43.96
2023-03-20T01:46:26.595Z,44.01
2023-03-20T01:49:10.318Z,44.13
2023-03-20T01:51:38.196Z,44.24
2023-03-20T01:54:16.382Z,43.93
2023-03-20T01:56:57.689Z,44.06
2023-03-20T01:59:30.682Z,44.14
2023-03-20T02:01:59.363Z,44.08
2023-03-20T02:04:32.100Z,43.92
2023-03-20T02:07:08.841Z,44.28
2023-03-20T02:09:41.098Z,44.25
2023-03-20T02:12:14.410Z,43.90
2023-03-20T02:14:45.306Z,43.85
2023-03-20T02:17:22.543Z,44.23
2023-03-20T02:20:08.092Z,43.84
2023-03-20T02:23:09.068Z,43.93
2023-03-20T02:26:13.664Z,44.80
2023-03-20T02:29:16.828Z,44.32
2023-03-20T02:32:21.785Z,44.37
2023-03-20T02:35:06.456Z,44.08
2023-03-20T02:37:59.557Z,44.54
2023-03-20T02:40:34.976Z,43.92
2023-03-20T02:43:10.108Z,44.33
2023-03-20T02:45:46.825Z,44.35
2023-03-20T02:48:28.640Z,44.26
2023-03-20T02:51:02.090Z,44.40
2023-03-20T02:53:48.614Z,44.60
2023-03-20T02:56:23.379Z,44.43
2023-03-20T02:58:56.065Z,44.49
2023-03-20T03:01:31.748Z,44.37
2023-03-20T03:04:03.741Z,44.77
2023-03-20T03:06:33.456Z,44.64
2023-03-20T03:09:07.076Z,44.76
2023-03-20T03:11:40.075Z,44.49
2023-03-20T03:14:09.198Z,44.72
2023-03-20T03:16:39.451Z,44.38
2023-03-20T03:19:11.128Z,44.45
2023-03-20T03:21:41.502Z,44.46
2023-03-20T03:24:39.965Z,44.77
2023-03-20T03:27:18.486Z,44.30
2023-03-20T03:29:52.454Z,44.24
2023-03-20T03:32:27.369Z,44.90
2023-03-20T03:34:56.654Z,44.69
2023-03-20T03:37:35.282Z,44.87
2023-03-20T03:40:14.223Z,44.70
2023-03-20T03:42:50.723Z,45.02
2023-03-20T03:45:24.620Z,44.35
2023-03-20T03:47:57.925Z,44.94
2023-03-20T03:50:30.936Z,44.48
2023-03-20T03:53:05.945Z,44.41
2023-03-20T03:55:40.583Z,44.95
2023-03-20T03:58:15.980Z,44.50
2023-03-20T04:00:47.968Z,44.23
2023-03-20T04:03:17.011Z,44.38
2023-03-20T04:05:47.372Z,44.11
2023-03-20T04:08:16.430Z,44.13
2023-03-20T04:10:45.614Z,44.54
2023-03-20T04:13:13.468Z,44.84
2023-03-20T04:15:41.636Z,44.73
2023-03-20T04:18:15.579Z,44.61
2023-03-20T04:20:44.452Z,44.19
2023-03-20T04:23:12.246Z,44.44
2023-03-20T04:25:40.487Z,43.85
2023-03-20T04:28:11.601Z,44.11
2023-03-20T04:30:56.282Z,43.89
2023-03-20T04:33:36.015Z,43.87
2023-03-20T04:36:21.748Z,43.92
2023-03-20T04:38:51.008Z,44.27
2023-03-20T04:41:21.171Z,44.24
2023-03-20T04:43:54.297Z,44.00
2023-03-20T04:46:23.210Z,44.08
2023-03-20T04:48:51.243Z,43.84
2023-03-20T04:51:20.049Z,43.97
2023-03-20T04:53:52.409Z,43.98
2023-03-20T04:56:20.299Z,43.75
2023-03-20T04:58:49.973Z,44.30
2023-03-20T05:01:23.276Z,44.09
2023-03-20T05:03:52.081Z,44.10
2023-03-20T05:06:19.947Z,44.32
2023-03-20T05:08:48.022Z,43.93
2023-03-20T05:11:18.890Z,43.67
2023-03-20T05:14:06.788Z,43.82
2023-03-20T05:17:14.151Z,43.60
2023-03-20T05:20:00.464Z,43.47
2023-03-20T05:22:50.291Z,43.47
2023-03-20T05:25:35.064Z,43.91
2023-03-20T05:28:23.336Z,43.87
2023-03-20T05:31:11.981Z,44.01
2023-03-20T05:34:05.329Z,44.00
2023-03-20T05:36:56.673Z,44.29
2023-03-20T05:39:32.014Z,43.77
2023-03-20T05:42:13.598Z,44.05
2023-03-20T05:44:59.793Z,44.08
2023-03-20T05:47:42.899Z,44.59
2023-03-20T05:50:26.173Z,44.19
2023-03-20T05:53:07.420Z,44.02
2023-03-20T05:56:01.409Z,44.26
2023-03-20T05:58:42.275Z,44.14
2023-03-20T06:01:28.545Z,43.95
2023-03-20T06:04:12.364Z,44.08
2023-03-20T06:07:07.585Z,44.08
2023-03-20T06:09:37.043Z,44.33
2023-03-20T06:12:09.933Z,44.37
2023-03-20T06:14:38.546Z,44.24
2023-03-20T06:17:08.961Z,44.29
2023-03-20T06:19:36.821Z,44.34
2023-03-20T06:22:04.644Z,44.35
2023-03-20T06:24:35.415Z,44.57
2023-03-20T06:27:03.387Z,44.58
2023-03-20T06:29:31.326Z,44.72
2023-03-20T06:32:12.331Z,44.64
2023-03-20T06:34:40.168Z,44.88
2023-03-20T06:37:08.559Z,44.26
2023-03-20T06:39:37.874Z,44.47
2023-03-20T06:42:07.755Z,44.05
2023-03-20T06:44:37.358Z,44.50
2023-03-20T06:47:15.706Z,44.44
2023-03-20T06:49:45.897Z,44.45
2023-03-20T06:52:17.577Z,44.29
2023-03-20T06:54:52.184Z,44.40
2023-03-20T06:57:20.411Z,44.34
2023-03-20T06:59:48.294Z,44.07
2023-03-20T07:02:16.289Z,44.36
2023-03-20T07:04:44.561Z,44.21
2023-03-20T07:07:12.695Z,44.37
2023-03-20T07:09:42.294Z,44.16
2023-03-20T07:12:15.023Z,44.25
2023-03-20T07:14:44.175Z,44.17
2023-03-20T07:17:16.810Z,44.22
2023-03-20T07:19:45.247Z,44.35
2023-03-20T07:22:22.596Z,43.51
2023-03-20T07:24:51.893Z,43.87
2023-03-20T07:27:23.249Z,44.05
2023-03-20T07:29:54.849Z,43.86
2023-03-20T07:32:24.119Z,43.70
2023-03-20T07:34:53.385Z,44.08
2023-03-20T07:37:21.702Z,43.76
2023-03-20T07:39:58.893Z,44.05
2023-03-20T07:42:32.558Z,44.06
2023-03-20T07:45:09.360Z,44.04
2023-03-20T07:47:37.496Z,43.71
2023-03-20T07:50:08.289Z,43.97
2023-03-20T07:52:36.587Z,44.03
2023-03-20T07:55:04.857Z,43.96
2023-03-20T07:57:34.604Z,43.87
2023-03-20T08:00:08.848Z,44.09
2023-03-20T08:02:42.341Z,43.43
2023-03-20T08:05:10.811Z,43.71
2023-03-20T08:07:38.776Z,43.77
2023-03-20T08:10:07.484Z,43.74
2023-03-20T08:12:36.956Z,43.48
2023-03-20T08:15:05.674Z,43.32
2023-03-20T08:17:33.533Z,43.38
2023-03-20T08:20:01.753Z,43.39
2023-03-20T08:22:29.505Z,43.13
2023-03-20T08:24:57.336Z,43.33
2023-03-20T08:27:25.498Z,43.23
2023-03-20T08:29:54.828Z,42.72
2023-03-20T08:32:22.550Z,42.89
2023-03-20T08:34:50.490Z,42.91
2023-03-20T08:37:19.742Z,43.28
2023-03-20T08:39:47.882Z,42.90
2023-03-20T08:42:16.316Z,42.61
2023-03-20T08:44:45.051Z,42.45
2023-03-20T08:47:14.171Z,42.10
2023-03-20T08:49:43.199Z,42.23
2023-03-20T08:52:11.164Z,42.24
2023-03-20T08:54:39.087Z,42.37
2023-03-20T08:57:07.040Z,42.06
2023-03-20T08:59:34.868Z,42.16
2023-03-20T09:02:02.720Z,42.05
2023-03-20T09:04:32.008Z,41.25
2023-03-20T09:07:01.260Z,41.44
2023-03-20T09:09:29.507Z,41.87
2023-03-20T09:11:57.895Z,41.62
2023-03-20T09:14:26.840Z,41.67
2023-03-20T09:16:54.931Z,41.55
2023-03-20T09:19:23.004Z,41.03
2023-03-20T09:21:52.162Z,40.77
2023-03-20T09:24:19.967Z,41.46
2023-03-20T09:26:47.864Z,41.15
2023-03-20T09:29:15.807Z,41.32
2023-03-20T09:31:44.399Z,40.87
2023-03-20T09:34:12.554Z,41.27
2023-03-20T09:36:40.854Z,41.19
2023-03-20T09:39:10.100Z,40.78
2023-03-20T09:41:53.150Z,40.65
2023-03-20T09:44:40.375Z,39.89
2023-03-20T09:47:20.943Z,40.02
2023-03-20T09:50:00.249Z,40.33
2023-03-20T09:52:32.114Z,40.19
2023-03-20T09:55:08.063Z,40.16
2023-03-20T09:57:40.706Z,39.91
2023-03-20T10:00:13.950Z,40.31
2023-03-20T10:02:49.076Z,39.79
2023-03-20T10:05:24.223Z,39.69
2023-03-20T10:07:53.650Z,40.00
2023-03-20T10:10:28.779Z,39.64
2023-03-20T10:13:07.203Z,39.24
2023-03-20T10:15:44.751Z,38.78
2023-03-20T10:18:21.672Z,38.68
2023-03-20T10:20:56.683Z,39.06
2023-03-20T10:23:34.678Z,39.20
2023-03-20T10:26:11.899Z,38.64
2023-03-20T10:28:45.713Z,39.32
2023-03-20T10:31:33.336Z,38.20
2023-03-20T10:34:15.106Z,38.29
2023-03-20T10:36:55.850Z,38.10
2023-03-20T10:39:36.093Z,38.25
2023-03-20T10:42:14.830Z,38.21
2023-03-20T10:44:48.384Z,38.97
2023-03-20T10:47:20.040Z,38.64
2023-03-20T10:49:51.825Z,38.88
2023-03-20T10:52:23.610Z,38.36
2023-03-20T10:54:56.598Z,38.63
2023-03-20T10:57:26.314Z,39.06
2023-03-20T10:59:57.083Z,39.03
2023-03-20T11:02:29.980Z,38.47
2023-03-20T11:04:58.058Z,39.14
2023-03-20T11:07:28.588Z,39.37
2023-03-20T11:10:16.577Z,38.45
2023-03-20T11:12:48.387Z,39.53
2023-03-20T11:15:22.310Z,39.23
2023-03-20T11:17:58.288Z,38.82
2023-03-20T11:20:27.950Z,39.29
2023-03-20T11:23:00.608Z,38.73
2023-03-20T11:25:35.462Z,39.46
2023-03-20T11:28:39.072Z,39.58
2023-03-20T11:31:16.570Z,39.54
2023-03-20T11:33:46.238Z,39.68
2023-03-20T11:36:24.343Z,39.18
2023-03-20T11:38:54.471Z,39.54
2023-03-20T11:41:27.429Z,39.73
2023-03-20T11:43:56.773Z,39.90
2023-03-20T11:46:25.998Z,39.55
2023-03-20T11:49:06.957Z,38.97
2023-03-20T11:51:38.176Z,38.97
2023-03-20T11:54:09.025Z,39.27
2023-03-20T11:56:37.751Z,39.11
2023-03-20T11:59:15.818Z,38.78
2023-03-20T12:01:47.232Z,39.46
2023-03-20T12:04:17.352Z,39.44
2023-03-20T12:06:54.975Z,39.29
2023-03-20T12:09:32.801Z,39.35
2023-03-20T12:12:03.707Z,39.37
2023-03-20T12:14:39.849Z,39.49
2023-03-20T12:17:31.372Z,39.46
2023-03-20T12:20:04.812Z,39.18
2023-03-20T12:22:37.434Z,39.54
2023-03-20T12:25:17.807Z,39.36
2023-03-20T12:27:51.455Z,39.49
2023-03-20T12:30:29.484Z,40.09
2023-03-20T12:33:03.941Z,39.81
2023-03-20T12:35:34.686Z,39.72
2023-03-20T12:38:02.771Z,40.10
2023-03-20T12:40:45.465Z,40.13
2023-03-20T12:43:16.346Z,39.89
2023-03-20T12:45:55.744Z,40.16
2023-03-20T12:48:55.498Z,39.61
2023-03-20T12:51:32.252Z,39.88
2023-03-20T12:54:15.166Z,40.50
2023-03-20T12:57:00.238Z,40.01
2023-03-20T12:59:36.468Z,40.50
2023-03-20T13:02:20.074Z,40.51
2023-03-20T13:05:10.409Z,39.92
2023-03-20T13:07:53.962Z,39.74
2023-03-20T13:10:23.515Z,40.30
2023-03-20T13:13:05.480Z,40.11
2023-03-20T13:15:46.808Z,40.09
2023-03-20T13:18:22.189Z,40.10
2023-03-20T13:20:53.014Z,40.42
2023-03-20T13:23:30.270Z,39.71
2023-03-20T13:26:09.623Z,40.28
2023-03-20T13:28:43.935Z,39.90
2023-03-20T13:31:22.044Z,40.15
2023-03-20T13:33:56.862Z,40.28
2023-03-20T13:36:49.925Z,39.81
2023-03-20T13:39:23.829Z,40.20
2023-03-20T13:41:53.478Z,40.26
2023-03-20T13:44:27.823Z,39.97
2023-03-20T13:47:01.069Z,40.33
2023-03-20T13:49:37.576Z,39.65
2023-03-20T13:52:14.422Z,40.18
2023-03-20T13:55:00.899Z,40.17
2023-03-20T13:57:49.530Z,40.05
2023-03-20T14:00:28.844Z,40.07
2023-03-20T14:03:19.228Z,40.17
2023-03-20T14:05:48.865Z,39.94
2023-03-20T14:08:32.333Z,39.91
2023-03-20T14:11:32.543Z,39.61
2023-03-20T14:14:08.902Z,40.33
2023-03-20T14:16:37.160Z,40.35
2023-03-20T14:19:17.425Z,39.70
2023-03-20T14:21:48.721Z,40.03
2023-03-20T14:24:19.642Z,40.17
2023-03-20T14:26:51.155Z,39.91
2023-03-20T14:29:38.297Z,40.00
2023-03-20T14:32:32.813Z,39.66
2023-03-20T14:35:20.344Z,39.94
2023-03-20T14:38:06.782Z,39.76
2023-03-20T14:40:40.430Z,40.03
2023-03-20T14:43:18.944Z,39.88
2023-03-20T14:45:53.146Z,40.33
2023-03-20T14:48:31.989Z,40.19
2023-03-20T14:51:20.773Z,39.71
2023-03-20T14:53:57.033Z,39.90
2023-03-20T14:56:34.284Z,39.94
2023-03-20T14:59:05.511Z,39.99
2023-03-20T15:01:58.414Z,39.48
2023-03-20T15:04:33.912Z,40.26
2023-03-20T15:07:04.586Z,40.23
2023-03-20T15:09:38.842Z,40.25
2023-03-20T15:12:07.469Z,40.12
2023-03-20T15:14:42.438Z,39.63
2023-03-20T15:17:19.951Z,39.87
2023-03-20T15:19:50.312Z,40.20
2023-03-20T15:22:20.304Z,39.83
2023-03-20T15:24:57.851Z,39.97
2023-03-20T15:27:29.772Z,40.23
2023-03-20T15:29:58.809Z,40.08
2023-03-20T15:32:26.840Z,40.06
2023-03-20T15:34:54.926Z,40.06
2023-03-20T15:37:25.957Z,40.00
2023-03-20T15:39:59.195Z,39.99
2023-03-20T15:42:28.005Z,39.90
2023-03-20T15:44:57.017Z,40.25
2023-03-20T15:47:26.235Z,40.47
2023-03-20T15:49:56.841Z,40.22
2023-03-20T15:52:32.424Z,39.65
2023-03-20T15:55:06.196Z,39.98
2023-03-20T15:57:37.500Z,39.86
2023-03-20T16:00:09.146Z,40.14
2023-03-20T16:02:38.370Z,40.01
2023-03-20T16:05:13.521Z,39.84
2023-03-20T16:07:42.225Z,40.00
2023-03-20T16:10:23.085Z,40.42
2023-03-20T16:12:54.478Z,40.24
2023-03-20T16:15:25.611Z,40.23
2023-03-20T16:17:56.229Z,40.10
2023-03-20T16:20:27.832Z,40.55
2023-03-20T16:23:01.166Z,40.76
2023-03-20T16:25:30.661Z,40.74
2023-03-20T16:27:59.805Z,40.27
2023-03-20T16:30:32.635Z,40.77
2023-03-20T16:33:02.772Z,40.63
2023-03-20T16:35:35.008Z,41.03
2023-03-20T16:38:04.377Z,40.52
2023-03-20T16:40:35.747Z,40.42
2023-03-20T16:43:08.582Z,40.71
2023-03-20T16:45:37.411Z,40.53
2023-03-20T16:48:32.166Z,40.37
2023-03-20T16:51:11.521Z,40.58
2023-03-20T16:53:45.651Z,40.06
2023-03-20T16:56:17.849Z,40.37
2023-03-20T16:58:46.855Z,40.63
2023-03-20T17:01:20.123Z,40.12
2023-03-20T17:03:52.262Z,40.43
2023-03-20T17:06:39.459Z,40.95
2023-03-20T17:09:20.852Z,40.76
2023-03-20T17:11:52.751Z,40.82
2023-03-20T17:14:20.787Z,40.67
2023-03-20T17:16:48.841Z,40.84
2023-03-20T17:19:18.665Z,40.73
2023-03-20T17:21:47.703Z,40.35
2023-03-20T17:24:17.012Z,40.59
2023-03-20T17:26:48.512Z,40.62
2023-03-20T17:29:17.745Z,40.69
2023-03-20T17:31:46.034Z,40.04
2023-03-20T17:34:15.800Z,40.15
2023-03-20T17:36:43.865Z,40.80
2023-03-20T17:39:18.882Z,39.87
2023-03-20T17:41:47.474Z,40.35
2023-03-20T17:44:16.836Z,40.44
2023-03-20T17:46:57.367Z,40.43
2023-03-20T17:49:28.012Z,40.10
2023-03-20T17:51:56.448Z,40.28
2023-03-20T17:54:24.365Z,40.16
2023-03-20T17:56:52.191Z,40.15
2023-03-20T17:59:21.471Z,40.12
2023-03-20T18:01:49.366Z,40.11
2023-03-20T18:04:17.264Z,39.96
2023-03-20T18:06:47.094Z,40.02
2023-03-20T18:09:16.058Z,39.53
2023-03-20T18:11:44.044Z,39.68
2023-03-20T18:14:12.407Z,40.18
2023-03-20T18:16:41.929Z,39.93
2023-03-20T18:19:15.843Z,40.17
2023-03-20T18:21:43.812Z,40.08
2023-03-20T18:24:11.698Z,40.24
2023-03-20T18:26:39.691Z,40.31
2023-03-20T18:29:07.636Z,40.31
2023-03-20T18:31:35.652Z,40.30
2023-03-20T18:34:05.277Z,40.45
2023-03-20T18:36:33.494Z,40.20
2023-03-20T18:39:01.491Z,40.70
2023-03-20T18:41:29.597Z,40.01
2023-03-20T18:43:57.682Z,40.48
2023-03-20T18:46:27.083Z,40.36
2023-03-20T18:48:55.682Z,40.47
2023-03-20T18:51:25.962Z,40.31
2023-03-20T18:53:54.045Z,40.24
2023-03-20T18:56:25.343Z,40.53
2023-03-20T18:58:54.350Z,40.77
2023-03-20T19:01:22.627Z,40.74
2023-03-20T19:03:53.673Z,40.73
2023-03-20T19:06:23.744Z,40.54
2023-03-20T19:08:53.698Z,40.64
2023-03-20T19:11:22.059Z,40.89
2023-03-20T19:13:52.245Z,40.73
2023-03-20T19:16:25.600Z,41.01
2023-03-20T19:18:54.743Z,40.95
2023-03-20T19:21:26.166Z,40.86
2023-03-20T19:23:56.943Z,40.63
2023-03-20T19:26:27.063Z,40.71
2023-03-20T19:28:56.325Z,40.61
2023-03-20T19:31:25.035Z,40.89
2023-03-20T19:33:53.167Z,41.25
2023-03-20T19:36:25.118Z,40.66
2023-03-20T19:38:53.020Z,41.22
2023-03-20T19:41:22.276Z,40.59
2023-03-20T19:43:54.043Z,41.06
2023-03-20T19:46:39.275Z,41.25
2023-03-20T19:49:10.948Z,41.24
2023-03-20T19:51:38.938Z,40.90
2023-03-20T19:54:07.437Z,41.10
2023-03-20T19:56:36.902Z,40.81
2023-03-20T19:59:06.106Z,40.90
2023-03-20T20:01:34.226Z,41.58
2023-03-20T20:04:02.145Z,41.38
2023-03-20T20:06:32.599Z,41.11
2023-03-20T20:09:01.009Z,41.24
2023-03-20T20:11:29.329Z,40.85
2023-03-20T20:14:08.478Z,41.09
2023-03-20T20:16:39.597Z,40.79
2023-03-20T20:19:08.047Z,41.26
2023-03-20T20:22:19.429Z,41.08
2023-03-20T20:24:24.323Z,41.30
2023-03-20T20:26:59.670Z,41.39
2023-03-20T20:29:32.714Z,41.18
2023-03-20T20:32:01.390Z,41.29
2023-03-20T20:40:07.263Z,41.13
2023-03-20T20:42:37.022Z,41.16
2023-03-20T20:45:08.454Z,41.22
2023-03-20T20:47:36.646Z,41.03
2023-03-20T20:50:05.371Z,41.13
2023-03-20T20:52:39.176Z,41.25
2023-03-20T20:55:22.188Z,41.21
2023-03-20T20:57:51.764Z,41.02
2023-03-20T21:00:27.447Z,41.31
2023-03-20T21:02:57.640Z,40.88
2023-03-20T21:05:26.962Z,41.04
2023-03-20T21:07:54.799Z,40.87
2023-03-20T21:10:23.243Z,41.08
2023-03-20T21:12:59.103Z,40.79
2023-03-20T21:15:28.933Z,40.90
2023-03-20T21:18:01.741Z,40.88
2023-03-20T21:20:30.455Z,40.65
2023-03-20T21:22:58.311Z,41.14
2023-03-20T21:25:39.242Z,40.97
2023-03-20T21:28:08.755Z,40.93
2023-03-20T21:30:44.247Z,40.85
2023-03-20T21:33:18.942Z,40.61
2023-03-20T21:35:46.935Z,40.87
2023-03-20T21:39:01.884Z,41.07
2023-03-20T21:41:09.077Z,40.84
2023-03-20T21:43:36.937Z,41.09
2023-03-20T21:57:55.796Z,40.81
2023-03-20T22:03:01.599Z,41.04
2023-03-20T22:14:56.859Z,41.27
2023-03-20T22:20:27.536Z,40.93
2023-03-20T22:25:56.032Z,40.85
2023-03-20T22:34:24.128Z,41.03
2023-03-20T22:37:27.696Z,41.03
2023-03-20T22:42:49.080Z,41.36
2023-03-20T22:45:01.775Z,41.14
2023-03-20T22:47:32.388Z,40.82
2023-03-20T22:50:00.336Z,40.88
2023-03-20T22:52:42.019Z,40.63
2023-03-20T22:55:17.001Z,40.84
2023-03-20T22:57:56.181Z,41.07
2023-03-20T23:00:31.783Z,40.77
2023-03-20T23:03:13.673Z,41.28
2023-03-20T23:05:43.765Z,41.17
2023-03-20T23:08:13.314Z,40.83
2023-03-20T23:10:44.405Z,41.02
2023-03-20T23:13:12.499Z,41.30
2023-03-20T23:15:40.365Z,40.74
2023-03-20T23:18:09.524Z,41.02
2023-03-20T23:20:37.553Z,40.90
2023-03-20T23:23:05.675Z,41.20
2023-03-20T23:25:41.851Z,41.05
2023-03-20T23:28:10.950Z,41.15
2023-03-20T23:30:48.082Z,41.47
2023-03-20T23:33:19.742Z,41.15
2023-03-20T23:35:48.804Z,41.37
2023-03-20T23:38:17.570Z,41.34
2023-03-20T23:40:51.394Z,40.98
2023-03-20T23:43:19.538Z,41.24
2023-03-20T23:45:47.861Z,41.43
2023-03-20T23:48:15.970Z,40.90
2023-03-20T23:50:52.700Z,41.29
2023-03-20T23:53:22.063Z,41.52
2023-03-20T23:55:53.686Z,41.55
2023-03-20T23:58:23.422Z,41.18
